收藏本版 (65) |订阅

欧美无损音乐 今日: 6 |主题: 4232|排名: 7 

作者 回复/查看 最后发表
本版置顶 隐藏置顶帖 预览 [流行] 卡口自抓No.13 After 7-Reflections 1995 WAV attach_img maoyi20091202 2020-6-6 11241 dsq1972dsq 2020-7-15 16:40
本版置顶 隐藏置顶帖 预览 [流行] Lisa Loeb - A Simple Trick to Happiness 单纯的幸福(2020) flac  ...23 iskpyj 2020-2-29 311295 edmeng 2020-7-15 15:46
本版置顶 隐藏置顶帖 预览 [摇滚] 流金岁月NO.20 Def Leppard - 12Albums 1980-2015 [FLAC] attach_img maoyi20091202 2020-5-11 14297 edmeng 2020-7-15 15:28
本版置顶 隐藏置顶帖 预览 [舞曲] Kygo – Golden Hour 2020【FLAC无损/702M】 attach_img luck3 2020-6-28 5218 110q 2020-7-15 11:09
本版置顶 隐藏置顶帖 预览 [流行] James Blunt – Once Upon a Mind (2019) FLAC attach_img luck3 2020-7-4 2126 liqirui39505 2020-7-15 10:28
本版置顶 隐藏置顶帖 [流行] 【QOBUZ】迈克尔·杰克逊 - Dangerous 2001 FLAC/24bit/96khz - [阅读权限 50]attachment auxzhb 2020-3-9 1375 tnz 2020-7-15 08:33
本版置顶 隐藏置顶帖 预览 [摇滚] 流金岁月NO.13 Scorpions - Crazy World 1990 [FLAC] attach_img maoyi20091202 2020-5-3 10263 贝多芬的狂喜 2020-7-15 00:01
本版置顶 隐藏置顶帖 预览 [摇滚] 流金岁月NO.14 Great White - 2Albums 1987-1989 [FLAC] attach_img maoyi20091202 2020-5-4 7217 GOLEM 2020-7-14 21:21
本版置顶 隐藏置顶帖 预览 [流行] 实现情感和音乐之旅 Stone Temple Pilots - Perdida 失落 (2020) FLAC  ...23456 iskpyj 2020-2-9 781247 xxczrx 2020-7-14 16:02
本版置顶 隐藏置顶帖 预览 [乡村] 原抓乡村:Luke Bryan 白牙叔《7CD》WAV无损/BD attach_img  ...2 apple_oo 2020-4-23 20535 yjg1971 2020-7-14 15:14
本版置顶 隐藏置顶帖 预览 [流行] Pet Shop Boys-Elysium- Further Listening 2011-2012 (2017)自抓 WAV attach_img maoyi20091202 2020-5-26 7214 沙海余音 2020-7-13 15:26
本版置顶 隐藏置顶帖 预览 [流行] Pet Shop Boys -Disco1-4 1986-2007 [FLAC] attach_img maoyi20091202 2020-5-8 7196 jijibu 2020-7-13 13:30
本版置顶 隐藏置顶帖 预览 [流行] Pet Shop Boys-Fundamental- Further Listening 2005-2007(2017)WAV attach_img maoyi20091202 2020-5-20 8240 lin_tju 2020-7-13 12:19
本版置顶 隐藏置顶帖 预览 [流行] Pet Shop Boys-Actually /Further Listening 1987-1988(2018) 自抓[wav] attach_img maoyi20091202 2020-5-7 9222 lin_tju 2020-7-13 12:01
本版置顶 隐藏置顶帖 预览 [流行] Pet Shop Boys-Please / Further Listening 1984-1986(2018) 自抓[wav] attach_img maoyi20091202 2020-5-6 6178 lin_tju 2020-7-13 12:00
本版置顶 隐藏置顶帖 预览 [蓝调] 卡口自抓NO.19 The Wallflower-Breach 2000 WAV attach_img maoyi20091202 2020-6-20 5207 fuge 2020-7-12 21:59
本版置顶 隐藏置顶帖 预览 [摇滚] 卡口自抓No.8 Deacon Blue-Whatever You Say,Say Nothing 1993 WAV attach_img maoyi20091202 2020-5-26 6275 fuge 2020-7-12 21:53
本版置顶 隐藏置顶帖 预览 [摇滚] 流金岁月NO.42 Victory -Culture Killed The Native 1988 FLAC attach_img maoyi20091202 2020-6-12 7172 fuge 2020-7-12 21:51
本版置顶 隐藏置顶帖 预览 [摇滚] 卡口自抓NO.22 Skid Row-Subhuman Race 1995 WAV attach_img maoyi20091202 2020-6-23 6138 fuge 2020-7-12 21:49
本版置顶 隐藏置顶帖 预览 [摇滚] Speed&Thrash MetalNO.2 Coroner-Punishment For Decadence 1988 FLAC attach_img maoyi20091202 2020-6-17 7223 mdj96888 2020-7-12 19:01
本版置顶 隐藏置顶帖 预览 [摇滚] Jesus Jones - Doubt 1991 flac attach_img maoyi20091202 2020-5-20 7322 dosrom 2020-7-12 16:54
本版置顶 隐藏置顶帖 预览 [摇滚] 美摇滚:Daughtry《6CD》FLAC / BD attach_img apple_oo 2020-4-22 6187 dosrom 2020-7-12 16:50
本版置顶 隐藏置顶帖 预览 [摇滚] Speed&Thrash MetalNO.5 Rigor Mortis-Rigor Mortis 1988 FLAC attach_img maoyi20091202 2020-6-25 7144 dosrom 2020-7-12 16:39
本版置顶 隐藏置顶帖 预览 [摇滚] Speed&Thrash MetalNO.1 Flotsam And Jetsam - No Place For Disgrace 1988 FLAC attach_img maoyi20091202 2020-6-16 8277 dosrom 2020-7-12 16:36
本版置顶 隐藏置顶帖 预览 [摇滚] EMF - Schubert Dip 1991 FLAC attach_img maoyi20091202 2020-5-29 5212 dosrom 2020-7-12 11:46
本版置顶 隐藏置顶帖 预览 [摇滚] The Prodigy-The Fat Of The Land 1997 自抓 WAV attach_img maoyi20091202 2020-6-8 8180 dosrom 2020-7-12 11:44
本版置顶 隐藏置顶帖 [流行] 【QOBUZ】迈克尔·杰克逊 - Number Ones 2003 FLAC/24bit/96khz - [阅读权限 50]attach_img auxzhb 2020-3-9 861 tnz 2020-7-12 10:29
本版置顶 隐藏置顶帖 [流行] 【QOBUZ】迈克尔·杰克逊 - Thriller 25(Super Deluxe Edition)2018 FLAC/24bit/44khz - [阅读权限 50]attach_img  ...2 auxzhb 2020-3-9 1674 tnz 2020-7-12 09:43
本版置顶 隐藏置顶帖 预览 [流行] Jesse McCartney(杰西·麦卡尼):自选40首/WAV / 百度盘 attach_img apple_oo 2020-4-23 9347 mdj96888 2020-7-12 07:11
本版置顶 隐藏置顶帖 预览 [爵士] 流行爵士女王诺拉琼斯2020新专辑Norah Jones《Pick Me Up Off The Floor》FLAC attach_img luck3 2020-6-11 9301 giveup2001 2020-7-12 06:41
本版置顶 隐藏置顶帖 预览 [电音] Depeche Mode-Violator 1990 自抓 [FLAC/16/44] attach_img maoyi20091202 2020-4-16 7330 PH_Bomber 2020-7-11 14:46
本版置顶 隐藏置顶帖 预览 [摇滚] 4AD系列NO.7 Spirea X-Fireblade Skies 1991 flac attach_img maoyi20091202 2020-6-2 8245 seanzeng 2020-7-11 10:43
本版置顶 隐藏置顶帖 预览 [摇滚] 4AD系列NO.6 Ultra Vivid Scene - Ultra Vivid Scene (1988) FLAC attach_img maoyi20091202 2020-6-1 8212 seanzeng 2020-7-11 10:42
本版置顶 隐藏置顶帖 预览 [摇滚] 4AD系列NO.5 Belly-Star 1991 flac attachment maoyi20091202 2020-5-30 8492 seanzeng 2020-7-11 10:37
本版置顶 隐藏置顶帖 预览 [摇滚] 4AD系列NO.2 the wolfgang press--funky little demons1995 WAV attach_img maoyi20091202 2020-5-24 7320 seanzeng 2020-7-11 10:32
本版置顶 隐藏置顶帖 预览 [摇滚] 4AD系列NO.8 Swallow-Blow 1992 FLAC attach_img maoyi20091202 2020-6-3 9199 seanzeng 2020-7-11 10:27
本版置顶 隐藏置顶帖 预览 [流行] Prince & the Revolution-Purple Rain 1984 自抓 wav attach_img maoyi20091202 2020-6-12 10223 cicada73 2020-7-11 03:19
本版置顶 隐藏置顶帖 预览 [摇滚] 流金岁月NO.32 Faith No More-The Real Thing 1989 FLAC attach_img maoyi20091202 2020-5-31 8374 cicada73 2020-7-11 00:47
本版置顶 隐藏置顶帖 预览 [舞曲] DJ Bobo《12CD》Instrumentals乐器版/FLAC/百度盘 attach_img apple_oo 2020-4-22 14357 wjjbad 2020-7-10 21:23
本版置顶 隐藏置顶帖 预览 [舞曲] 4AD系列NO.10 M/A/R/R/S-Pump Up the Volume(4th&Broadway)1987 FLAC attach_img maoyi20091202 2020-6-5 10218 哥哥的哥哥 2020-7-10 13:54
本版置顶 隐藏置顶帖 预览 [舞曲] Cracy Frog-Crazy Hits 2005 WAV attach_img maoyi20091202 2020-6-27 7129 哥哥的哥哥 2020-7-10 13:53
本版置顶 隐藏置顶帖 [流行] 【MORA】Taylor Swift - 1989 (Deluxe Edition)2019 FLAC/24bit/44khz - [阅读权限 20]attach_img  ...2 auxzhb 2020-3-7 18134 aaabbbm 2020-7-10 13:35
本版置顶 隐藏置顶帖 预览 [摇滚] 流金岁月NO.34 Mr.Big-Mr.Big 1989 wav attachment maoyi20091202 2020-6-2 9202 aaabbbm 2020-7-10 10:32
本版置顶 隐藏置顶帖 预览 [摇滚] 流金岁月NO.33 Jon Bon Jovi- Blaze Of Glory 1990 flac attach_img maoyi20091202 2020-6-1 11246 aaabbbm 2020-7-10 10:32
本版置顶 隐藏置顶帖 预览 [流行] Milli Vanilli - The Best Of Milli Vanilli(2013)自抓 FLAC/16/44 推荐 attach_img maoyi20091202 2020-4-14 12430 altang66 2020-7-10 08:48
本版置顶 隐藏置顶帖 预览 [电音] 4AD系列NO.4 Clan of Xymox-The Best Of(2004) FLAC attach_img maoyi20091202 2020-5-27 9473 hbshgs 2020-7-9 22:21
本版置顶 隐藏置顶帖 预览 [摇滚] 4AD系列NO.11 Pixies-Surfer Rosa&Doolittle 1988-1989 flac attach_img maoyi20091202 2020-6-8 6182 dosrom 2020-7-9 21:19
本版置顶 隐藏置顶帖 预览 [流行] Deep Forest-21Singles 1992-2002 WAV 推荐 attach_img maoyi20091202 2020-7-2 6178 蝶翅 2020-7-9 21:14
本版置顶 隐藏置顶帖 预览 [摇滚] 卡口自抓NO.17 Black Sabbath-TYR 1990 WAV attach_img maoyi20091202 2020-6-17 6193 dosrom 2020-7-9 21:05
本版置顶 隐藏置顶帖 预览 [流行] Duran Duran - 15 Albums 1981-2015 [FLAC/16/44] 版主推荐 attach_img maoyi20091202 2020-4-21 15503 altang66 2020-7-9 19:11
下一页 »

快速发帖

还可输入 80 个字符
您需要登录后才可以发帖 登录 | 立即注册

本版积分规则

手机版|炫音音乐论坛 ( 皖ICP备13017420号-3 )皖公网安备 34082502000069号

GMT+8, 2020-8-14 08:12 , Processed in 0.136271 second(s), 16 queries , Gzip On.

Powered by Discuz! X3.4

© 2004-2017 炫音音乐论坛

返回顶部 返回版块